Fermeuse, Canada
Current Conditions -  °F | °C
As of 10:00 AM on Saturday 20 Dec 2014 (Local Time) from CYYT Reporting Station
Broken Clouds Broken Clouds  
Wind Chill: 19°   Ceiling: 9000
Heat Index: 32°   Visibility: 15mi
Dew Point: 27°   Wind: 22mph
Humidity: 80%   Direction: 30°NNE
Pressure: 30.05"   Gusts: 29mph
Location:  46.97°N, 52.97°W
Report Text: CYYT 201300Z 03019G25KT 15SM SCT022 BKN090 M00/M03 A3005 RMK SC3AC2 SLP184
Loading
Personal Weather Stations






























Interactive Weather Map New forecast layout! Learn more

10-Day Weather Forecast

Advertisements
Track Severe Weather on mobile